createdAt,value
2019-05-14T00:00:52.213Z,9.53
2019-05-14T00:01:51.695Z,9.65
2019-05-14T00:02:52.142Z,9.59
2019-05-14T00:03:51.793Z,9.62
2019-05-14T00:04:51.667Z,9.63
2019-05-14T00:05:51.913Z,9.60
2019-05-14T00:06:52.027Z,9.56
2019-05-14T00:07:52.235Z,9.49
2019-05-14T00:08:52.268Z,9.58
2019-05-14T00:09:52.056Z,9.48
2019-05-14T00:10:52.188Z,9.52
2019-05-14T00:11:51.565Z,9.48
2019-05-14T00:12:51.555Z,9.42
2019-05-14T00:13:52.032Z,9.48
2019-05-14T00:14:51.761Z,9.52
2019-05-14T00:15:52.189Z,9.49
2019-05-14T00:16:51.509Z,9.44
2019-05-14T00:17:52.243Z,9.44
2019-05-14T00:18:51.491Z,9.40
2019-05-14T00:20:06.016Z,9.40
2019-05-14T00:20:51.453Z,9.59
2019-05-14T00:21:51.516Z,9.48
2019-05-14T00:22:52.184Z,9.48
2019-05-14T00:23:51.556Z,9.59
2019-05-14T00:24:52.063Z,9.41
2019-05-14T00:25:52.255Z,9.55
2019-05-14T00:26:51.797Z,9.45
2019-05-14T00:27:51.952Z,9.49
2019-05-14T00:28:51.391Z,9.52
2019-05-14T00:29:51.834Z,9.49
2019-05-14T00:30:52.379Z,9.44
2019-05-14T00:31:51.738Z,9.48
2019-05-14T00:32:52.082Z,9.49
2019-05-14T00:33:51.447Z,9.38
2019-05-14T00:34:51.772Z,9.40
2019-05-14T00:35:51.579Z,9.44
2019-05-14T00:36:52.499Z,9.42
2019-05-14T00:37:52.128Z,9.55
2019-05-14T00:38:51.464Z,9.44
2019-05-14T00:39:52.131Z,9.42
2019-05-14T00:40:51.529Z,9.40
2019-05-14T00:41:51.411Z,9.40
2019-05-14T00:42:53.281Z,9.31
2019-05-14T00:43:51.485Z,9.30
2019-05-14T00:44:55.350Z,9.30
2019-05-14T00:45:51.274Z,9.30
2019-05-14T00:46:51.629Z,9.34
2019-05-14T00:47:52.504Z,9.20
2019-05-14T00:48:51.571Z,9.27
2019-05-14T00:49:51.782Z,9.23
2019-05-14T00:50:51.707Z,9.32
2019-05-14T00:51:51.977Z,9.27
2019-05-14T00:52:51.717Z,9.22
2019-05-14T00:53:51.681Z,9.15
2019-05-14T00:54:52.153Z,9.19
2019-05-14T00:55:51.716Z,9.23
2019-05-14T00:56:52.106Z,9.22
2019-05-14T00:57:52.237Z,9.16
2019-05-14T00:58:52.165Z,9.16
2019-05-14T00:59:52.125Z,9.20
2019-05-14T01:00:52.605Z,9.16
2019-05-14T01:01:51.638Z,9.13
2019-05-14T01:02:51.766Z,9.04
2019-05-14T01:03:52.122Z,9.06
2019-05-14T01:04:51.668Z,9.16
2019-05-14T01:05:52.159Z,9.00
2019-05-14T01:06:51.235Z,8.98
2019-05-14T01:07:51.359Z,9.06
2019-05-14T01:08:51.833Z,9.06
2019-05-14T01:09:52.343Z,9.01
2019-05-14T01:10:51.335Z,8.98
2019-05-14T01:11:51.284Z,8.94
2019-05-14T01:12:52.078Z,9.00
2019-05-14T01:13:52.236Z,8.96
2019-05-14T01:14:52.881Z,8.94
2019-05-14T01:15:52.151Z,8.83
2019-05-14T01:16:51.403Z,8.89
2019-05-14T01:17:51.560Z,8.91
2019-05-14T01:18:51.371Z,8.91
2019-05-14T01:19:51.344Z,8.89
2019-05-14T01:20:51.958Z,8.80
2019-05-14T01:21:51.181Z,8.71
2019-05-14T01:22:51.582Z,8.80
2019-05-14T01:23:51.360Z,8.80
2019-05-14T01:24:52.242Z,8.76
2019-05-14T01:25:51.637Z,8.78
2019-05-14T01:26:52.333Z,8.80
2019-05-14T01:27:51.785Z,8.80
2019-05-14T01:28:51.397Z,8.80
2019-05-14T01:29:51.401Z,8.83
2019-05-14T01:30:51.909Z,8.70
2019-05-14T01:31:52.066Z,8.73
2019-05-14T01:32:51.144Z,8.73
2019-05-14T01:33:51.550Z,8.75
2019-05-14T01:34:52.150Z,8.73
2019-05-14T01:35:51.431Z,8.64
2019-05-14T01:36:52.802Z,8.61
2019-05-14T01:37:52.244Z,8.65
2019-05-14T01:38:51.288Z,8.65
2019-05-14T01:39:51.935Z,8.64
2019-05-14T01:40:52.426Z,8.60
2019-05-14T01:41:51.685Z,8.64
2019-05-14T01:42:52.244Z,8.67
2019-05-14T01:43:51.352Z,8.63
2019-05-14T01:44:52.012Z,8.67
2019-05-14T01:45:52.395Z,8.61
2019-05-14T01:46:51.270Z,8.61
2019-05-14T01:47:52.076Z,8.55
2019-05-14T01:48:52.128Z,8.55
2019-05-14T01:49:51.571Z,8.54
2019-05-14T01:50:52.099Z,8.50
2019-05-14T01:51:51.198Z,8.57
2019-05-14T01:52:52.085Z,8.50
2019-05-14T01:53:52.083Z,8.57
2019-05-14T01:54:51.486Z,8.50
2019-05-14T01:55:52.079Z,8.54
2019-05-14T01:56:51.481Z,8.47
2019-05-14T01:57:51.779Z,8.47
2019-05-14T01:58:52.275Z,8.47
2019-05-14T01:59:51.649Z,8.50
2019-05-14T02:00:52.391Z,8.47
2019-05-14T02:01:51.747Z,8.47
2019-05-14T02:02:52.250Z,8.46
2019-05-14T02:03:51.810Z,8.45
2019-05-14T02:04:51.289Z,8.39
2019-05-14T02:05:52.046Z,8.42
2019-05-14T02:06:51.482Z,8.45
2019-05-14T02:07:52.410Z,8.40
2019-05-14T02:08:51.458Z,8.42
2019-05-14T02:09:51.756Z,8.40
2019-05-14T02:10:52.437Z,8.34
2019-05-14T02:11:51.842Z,8.32
2019-05-14T02:12:51.566Z,8.37
2019-05-14T02:13:51.860Z,8.37
2019-05-14T02:14:51.268Z,8.36
2019-05-14T02:15:51.831Z,8.42
2019-05-14T02:16:51.223Z,8.36
2019-05-14T02:17:51.904Z,8.37
2019-05-14T02:18:52.036Z,8.37
2019-05-14T02:19:51.464Z,8.32
2019-05-14T02:20:51.965Z,8.40
2019-05-14T02:21:51.429Z,8.31
2019-05-14T02:22:52.275Z,8.34
2019-05-14T02:23:51.390Z,8.29
2019-05-14T02:24:51.774Z,8.29
2019-05-14T02:25:51.825Z,8.36
2019-05-14T02:26:51.462Z,8.31
2019-05-14T02:27:51.797Z,8.27
2019-05-14T02:28:51.442Z,8.25
2019-05-14T02:29:51.767Z,8.29
2019-05-14T02:30:57.570Z,8.31
2019-05-14T02:31:50.439Z,8.25
2019-05-14T02:32:50.037Z,8.25
2019-05-14T02:33:50.551Z,8.27
2019-05-14T02:34:50.259Z,8.24
2019-05-14T02:35:49.699Z,8.24
2019-05-14T02:36:50.000Z,8.25
2019-05-14T02:37:50.627Z,8.21
2019-05-14T02:38:49.776Z,8.20
2019-05-14T02:39:50.313Z,8.10
2019-05-14T02:40:49.805Z,8.17
2019-05-14T02:41:50.021Z,8.10
2019-05-14T02:42:49.957Z,8.18
2019-05-14T02:43:50.531Z,8.10
2019-05-14T02:44:49.594Z,8.04
2019-05-14T02:46:01.993Z,8.12
2019-05-14T02:46:50.654Z,8.02
2019-05-14T02:47:50.540Z,7.96
2019-05-14T02:48:49.523Z,7.95
2019-05-14T02:49:50.378Z,7.94
2019-05-14T02:50:49.816Z,7.96
2019-05-14T02:51:50.395Z,7.96
2019-05-14T02:52:49.833Z,7.95
2019-05-14T02:53:49.938Z,7.92
2019-05-14T02:54:49.827Z,7.96
2019-05-14T02:55:49.941Z,7.94
2019-05-14T02:56:49.719Z,7.96
2019-05-14T02:57:50.106Z,7.95
2019-05-14T02:58:50.040Z,7.96
2019-05-14T02:59:50.208Z,7.94
2019-05-14T03:00:49.489Z,7.96
2019-05-14T03:01:50.255Z,8.07
2019-05-14T03:02:49.674Z,8.07
2019-05-14T03:03:49.714Z,7.92
2019-05-14T03:04:50.077Z,7.96
2019-05-14T03:05:49.820Z,7.96
2019-05-14T03:06:49.838Z,8.00
2019-05-14T03:07:50.179Z,7.99
2019-05-14T03:08:49.609Z,7.99
2019-05-14T03:09:50.280Z,7.96
2019-05-14T03:10:50.419Z,8.04
2019-05-14T03:11:49.207Z,7.92
2019-05-14T03:12:50.245Z,8.03
2019-05-14T03:13:49.597Z,7.96
2019-05-14T03:14:50.132Z,7.99
2019-05-14T03:15:49.972Z,7.99
2019-05-14T03:16:49.753Z,8.02
2019-05-14T03:17:49.511Z,7.95
2019-05-14T03:18:50.273Z,7.99
2019-05-14T03:19:49.707Z,7.92
2019-05-14T03:20:50.180Z,7.91
2019-05-14T03:21:50.184Z,7.91
2019-05-14T03:23:01.845Z,7.96
2019-05-14T03:23:49.776Z,7.91
2019-05-14T03:24:50.371Z,7.99
2019-05-14T03:25:49.545Z,7.96
2019-05-14T03:26:49.916Z,7.96
2019-05-14T03:27:49.640Z,7.92
2019-05-14T03:28:49.888Z,7.85
2019-05-14T03:29:49.920Z,7.92
2019-05-14T03:30:52.157Z,7.89
2019-05-14T03:31:52.514Z,7.89
2019-05-14T03:32:52.661Z,7.95
2019-05-14T03:33:52.476Z,7.88
2019-05-14T03:34:53.375Z,7.94
2019-05-14T03:35:57.359Z,7.94
2019-05-14T03:36:52.655Z,7.92
2019-05-14T03:37:49.785Z,7.91
2019-05-14T03:38:50.267Z,7.91
2019-05-14T03:39:49.501Z,7.94
2019-05-14T03:40:49.594Z,7.88
2019-05-14T03:41:49.959Z,7.92
2019-05-14T03:42:49.152Z,7.88
2019-05-14T03:43:49.358Z,7.94
2019-05-14T03:44:49.169Z,7.92
2019-05-14T03:45:49.505Z,7.94
2019-05-14T03:46:54.732Z,7.85
2019-05-14T03:47:50.430Z,7.91
2019-05-14T03:48:49.414Z,7.88
2019-05-14T03:49:49.835Z,7.86
2019-05-14T03:50:49.635Z,7.82
2019-05-14T03:51:49.788Z,7.91
2019-05-14T03:52:49.863Z,7.77
2019-05-14T03:53:57.171Z,7.82
2019-05-14T03:54:49.655Z,7.77
2019-05-14T03:55:50.509Z,7.76
2019-05-14T03:56:49.724Z,7.77
2019-05-14T03:57:49.992Z,7.82
2019-05-14T03:58:49.426Z,7.76
2019-05-14T03:59:49.835Z,7.74
2019-05-14T04:00:49.915Z,7.77
2019-05-14T04:01:51.115Z,7.77
2019-05-14T04:02:49.168Z,7.81
2019-05-14T04:03:50.382Z,7.76
2019-05-14T04:04:50.064Z,7.79
2019-05-14T04:05:49.729Z,7.79
2019-05-14T04:06:49.659Z,7.77
2019-05-14T04:07:50.264Z,7.71
2019-05-14T04:08:49.764Z,7.76
2019-05-14T04:09:49.416Z,7.77
2019-05-14T04:10:53.508Z,7.77
2019-05-14T04:11:50.195Z,7.76
2019-05-14T04:12:49.400Z,7.74
2019-05-14T04:13:49.640Z,7.73
2019-05-14T04:14:50.271Z,7.91
2019-05-14T04:15:49.714Z,7.91
2019-05-14T04:17:03.943Z,7.88
2019-05-14T04:17:50.109Z,7.86
2019-05-14T04:18:50.387Z,7.95
2019-05-14T04:19:49.555Z,7.89
2019-05-14T04:20:50.087Z,7.92
2019-05-14T04:21:49.045Z,7.94
2019-05-14T04:22:50.077Z,7.92
2019-05-14T04:23:50.885Z,7.99
2019-05-14T04:24:49.608Z,8.00
2019-05-14T04:25:49.825Z,7.92
2019-05-14T04:27:01.746Z,7.95
2019-05-14T04:27:49.404Z,7.92
2019-05-14T04:28:49.915Z,7.95
2019-05-14T04:29:49.841Z,8.27
2019-05-14T04:30:49.306Z,8.83
2019-05-14T04:31:50.171Z,9.27
2019-05-14T04:32:50.520Z,9.49
2019-05-14T04:33:50.041Z,9.86
2019-05-14T04:34:49.840Z,10.29
2019-05-14T04:35:49.070Z,10.55
2019-05-14T04:36:50.212Z,10.69
2019-05-14T04:37:49.563Z,11.08
2019-05-14T04:38:54.193Z,11.24
2019-05-14T04:39:50.297Z,11.35
2019-05-14T04:40:49.430Z,11.45
2019-05-14T04:41:49.754Z,11.72
2019-05-14T04:42:50.303Z,11.72
2019-05-14T04:43:49.964Z,11.88
2019-05-14T04:44:50.363Z,11.97
2019-05-14T04:45:49.724Z,12.11
2019-05-14T04:46:49.355Z,12.25
2019-05-14T04:47:49.949Z,12.31
2019-05-14T04:48:50.790Z,12.26
2019-05-14T04:49:50.591Z,12.25
2019-05-14T04:50:49.719Z,12.12
2019-05-14T04:51:50.225Z,12.30
2019-05-14T04:52:49.456Z,12.22
2019-05-14T04:53:49.950Z,12.33
2019-05-14T04:54:49.928Z,12.46
2019-05-14T04:55:49.471Z,12.71
2019-05-14T04:56:50.711Z,13.03
2019-05-14T04:57:50.057Z,13.09
2019-05-14T04:58:49.728Z,13.14
2019-05-14T04:59:49.370Z,13.10
2019-05-14T05:00:49.895Z,13.07
2019-05-14T05:01:49.344Z,13.21
2019-05-14T05:02:49.733Z,13.39
2019-05-14T05:03:50.362Z,13.13
2019-05-14T05:04:50.710Z,13.28
2019-05-14T05:05:49.936Z,13.04
2019-05-14T05:06:49.910Z,12.95
2019-05-14T05:07:49.167Z,13.04
2019-05-14T05:08:49.793Z,12.69
2019-05-14T05:09:50.299Z,12.73
2019-05-14T05:10:49.435Z,12.67
2019-05-14T05:11:49.772Z,12.38
2019-05-14T05:12:49.272Z,12.31
2019-05-14T05:13:48.826Z,12.34
2019-05-14T05:14:49.313Z,12.08
2019-05-14T05:15:48.690Z,12.03
2019-05-14T05:16:48.988Z,11.84
2019-05-14T05:17:52.492Z,11.67
2019-05-14T05:18:49.161Z,11.35
2019-05-14T05:19:51.368Z,11.24
2019-05-14T05:20:50.599Z,11.08
2019-05-14T05:21:48.141Z,11.09
2019-05-14T05:22:48.515Z,11.01
2019-05-14T05:23:49.294Z,10.94
2019-05-14T05:24:48.432Z,10.93
2019-05-14T05:25:49.050Z,10.76
2019-05-14T05:26:48.598Z,10.63
2019-05-14T05:27:48.681Z,10.49
2019-05-14T05:29:00.113Z,10.55
2019-05-14T05:29:48.601Z,10.49
2019-05-14T05:30:49.064Z,10.34
2019-05-14T05:31:48.745Z,10.44
2019-05-14T05:32:49.410Z,10.39
2019-05-14T05:33:48.926Z,10.32
2019-05-14T05:34:48.296Z,10.29
2019-05-14T05:35:48.666Z,10.28
2019-05-14T05:36:48.505Z,10.39
2019-05-14T05:37:49.047Z,10.26
2019-05-14T05:38:49.046Z,10.17
2019-05-14T05:39:49.084Z,10.28
2019-05-14T05:40:48.620Z,10.24
2019-05-14T05:41:49.156Z,10.18
2019-05-14T05:42:48.984Z,10.14
2019-05-14T05:43:48.380Z,10.14
2019-05-14T05:44:48.320Z,10.01
2019-05-14T05:45:48.539Z,9.99
2019-05-14T05:46:49.395Z,9.92
2019-05-14T05:47:57.147Z,9.91
2019-05-14T05:48:48.213Z,9.92
2019-05-14T05:49:48.772Z,9.89
2019-05-14T05:50:48.476Z,9.89
2019-05-14T05:51:48.406Z,9.80
2019-05-14T05:52:49.762Z,9.88
2019-05-14T05:53:48.407Z,9.83
2019-05-14T05:54:48.981Z,9.85
2019-05-14T05:55:48.490Z,9.86
2019-05-14T05:56:48.151Z,9.85
2019-05-14T05:57:49.256Z,9.91
2019-05-14T05:58:48.818Z,9.98
2019-05-14T05:59:48.433Z,9.89
2019-05-14T06:00:49.687Z,9.95
2019-05-14T06:01:50.069Z,9.91
2019-05-14T06:02:48.968Z,10.07
2019-05-14T06:03:49.170Z,10.01
2019-05-14T06:04:48.088Z,10.10
2019-05-14T06:05:49.253Z,10.02
2019-05-14T06:06:48.262Z,10.10
2019-05-14T06:07:48.297Z,10.14
2019-05-14T06:08:49.156Z,10.13
2019-05-14T06:09:48.317Z,10.14
2019-05-14T06:10:48.945Z,10.18
2019-05-14T06:11:48.794Z,10.16
2019-05-14T06:12:49.083Z,10.02
2019-05-14T06:13:48.503Z,10.11
2019-05-14T06:14:48.716Z,10.14
2019-05-14T06:15:49.376Z,10.18
2019-05-14T06:16:48.859Z,10.20
2019-05-14T06:17:49.153Z,10.29
2019-05-14T06:18:48.410Z,10.24
2019-05-14T06:19:48.623Z,10.24
2019-05-14T06:20:49.192Z,10.24
2019-05-14T06:21:49.123Z,10.26
2019-05-14T06:22:48.967Z,10.26
2019-05-14T06:23:49.073Z,10.25
2019-05-14T06:24:48.559Z,10.14
2019-05-14T06:25:49.243Z,10.22
2019-05-14T06:26:48.813Z,10.13
2019-05-14T06:27:48.606Z,10.26
2019-05-14T06:28:48.726Z,10.29
2019-05-14T06:29:48.866Z,10.32
2019-05-14T06:30:48.440Z,10.31
2019-05-14T06:31:49.334Z,10.26
2019-05-14T06:32:48.768Z,10.38
2019-05-14T06:33:48.673Z,10.42
2019-05-14T06:34:48.956Z,10.43
2019-05-14T06:35:48.595Z,10.39
2019-05-14T06:36:48.568Z,10.55
2019-05-14T06:37:48.813Z,10.51
2019-05-14T06:38:49.228Z,10.63
2019-05-14T06:39:48.373Z,10.54
2019-05-14T06:40:48.950Z,10.58
2019-05-14T06:41:48.842Z,10.66
2019-05-14T06:42:48.544Z,10.73
2019-05-14T06:43:48.642Z,10.83
2019-05-14T06:44:49.042Z,10.88
2019-05-14T06:45:49.284Z,10.99
2019-05-14T06:46:48.699Z,11.02
2019-05-14T06:47:48.595Z,11.09
2019-05-14T06:48:48.569Z,11.13
2019-05-14T06:49:48.705Z,10.99
2019-05-14T06:50:46.607Z,11.09
2019-05-14T06:51:48.984Z,11.26
2019-05-14T06:52:49.017Z,11.19
2019-05-14T06:53:46.573Z,11.16
2019-05-14T06:54:49.369Z,11.19
2019-05-14T06:55:48.394Z,11.19
2019-05-14T06:56:48.737Z,11.23
2019-05-14T06:57:48.032Z,11.21
2019-05-14T06:58:48.852Z,11.26
2019-05-14T06:59:48.413Z,11.28
2019-05-14T07:00:46.500Z,11.21
2019-05-14T07:01:48.778Z,11.23
2019-05-14T07:02:48.898Z,11.24
2019-05-14T07:03:48.685Z,11.26
2019-05-14T07:04:48.431Z,11.30
2019-05-14T07:05:49.091Z,11.30
2019-05-14T07:06:48.452Z,11.21
2019-05-14T07:07:49.099Z,11.33
2019-05-14T07:08:48.655Z,11.38
2019-05-14T07:09:48.749Z,11.39
2019-05-14T07:10:48.605Z,11.35
2019-05-14T07:11:48.937Z,11.46
2019-05-14T07:12:46.364Z,11.53
2019-05-14T07:13:48.863Z,11.62
2019-05-14T07:14:48.194Z,11.59
2019-05-14T07:15:48.716Z,11.69
2019-05-14T07:16:48.481Z,11.63
2019-05-14T07:17:48.671Z,11.48
2019-05-14T07:18:52.558Z,11.46
2019-05-14T07:19:48.764Z,11.49
2019-05-14T07:20:48.353Z,11.53
2019-05-14T07:21:49.061Z,11.49
2019-05-14T07:22:48.356Z,11.54
2019-05-14T07:23:48.685Z,11.62
2019-05-14T07:24:46.228Z,11.64
2019-05-14T07:25:48.234Z,11.74
2019-05-14T07:26:49.118Z,11.64
2019-05-14T07:27:46.194Z,11.74
2019-05-14T07:28:48.552Z,11.77
2019-05-14T07:29:46.176Z,11.70
2019-05-14T07:30:48.484Z,11.88
2019-05-14T07:31:48.746Z,12.04
2019-05-14T07:32:48.435Z,11.97
2019-05-14T07:33:48.866Z,12.07
2019-05-14T07:34:48.199Z,12.13
2019-05-14T07:35:48.577Z,12.07
2019-05-14T07:36:46.101Z,12.13
2019-05-14T07:37:48.716Z,12.07
2019-05-14T07:38:48.673Z,12.04
2019-05-14T07:39:48.499Z,12.08
2019-05-14T07:40:49.204Z,12.15
2019-05-14T07:41:48.369Z,12.15
2019-05-14T07:42:48.564Z,12.22
2019-05-14T07:43:48.154Z,12.13
2019-05-14T07:44:48.320Z,12.11
2019-05-14T07:45:46.004Z,12.11
2019-05-14T07:46:48.157Z,12.13
2019-05-14T07:47:45.984Z,12.12
2019-05-14T07:49:03.264Z,12.13
2019-05-14T07:49:45.963Z,12.08
2019-05-14T07:50:49.281Z,12.19
2019-05-14T07:51:48.003Z,12.19
2019-05-14T07:52:46.085Z,12.05
2019-05-14T07:53:45.918Z,12.25
2019-05-14T07:54:48.009Z,12.19
2019-05-14T07:55:45.899Z,12.22
2019-05-14T07:56:45.886Z,12.23
2019-05-14T07:57:48.031Z,12.26
2019-05-14T07:58:45.869Z,12.41
2019-05-14T07:59:48.231Z,12.40
2019-05-14T08:00:45.845Z,12.54
2019-05-14T08:01:45.841Z,12.52
2019-05-14T08:02:45.823Z,12.61
2019-05-14T08:03:45.817Z,12.51
2019-05-14T08:04:45.805Z,12.43
2019-05-14T08:05:48.137Z,12.44
2019-05-14T08:06:45.782Z,12.58
2019-05-14T08:07:47.956Z,12.56
2019-05-14T08:08:45.766Z,12.54
2019-05-14T08:09:47.803Z,12.58
2019-05-14T08:10:45.740Z,12.73
2019-05-14T08:11:47.901Z,12.74
2019-05-14T08:12:45.724Z,12.69
2019-05-14T08:13:45.713Z,12.71
2019-05-14T08:15:09.513Z,12.80
2019-05-14T08:15:45.689Z,12.81
2019-05-14T08:16:45.683Z,12.96
2019-05-14T08:17:48.034Z,12.95
2019-05-14T08:18:45.664Z,13.06
2019-05-14T08:19:45.647Z,13.06
2019-05-14T08:20:45.642Z,13.03
2019-05-14T08:21:47.971Z,13.12
2019-05-14T08:22:45.617Z,13.13
2019-05-14T08:23:47.929Z,13.10
2019-05-14T08:24:45.599Z,13.16
2019-05-14T08:25:47.916Z,13.22
2019-05-14T08:26:45.582Z,13.19
2019-05-14T08:27:48.035Z,13.41
2019-05-14T08:28:45.561Z,13.31
2019-05-14T08:29:45.548Z,13.19
2019-05-14T08:30:45.539Z,13.17
2019-05-14T08:31:45.531Z,13.24
2019-05-14T08:32:45.521Z,13.17
2019-05-14T08:33:45.511Z,13.21
2019-05-14T08:34:47.832Z,13.32
2019-05-14T08:35:45.493Z,13.41
2019-05-14T08:36:45.479Z,13.38
2019-05-14T08:37:45.475Z,13.32
2019-05-14T08:38:46.475Z,13.35
2019-05-14T08:39:45.452Z,13.38
2019-05-14T08:40:45.442Z,13.38
2019-05-14T08:41:55.804Z,13.41
2019-05-14T08:42:45.425Z,13.35
2019-05-14T08:43:45.413Z,13.53
2019-05-14T08:44:50.361Z,13.48
2019-05-14T08:45:45.607Z,13.54
2019-05-14T08:46:45.439Z,13.65
2019-05-14T08:47:45.372Z,13.73
2019-05-14T08:48:45.366Z,13.81
2019-05-14T08:49:47.594Z,13.94
2019-05-14T08:50:45.346Z,13.87
2019-05-14T08:51:45.339Z,13.96
2019-05-14T08:52:45.327Z,13.99
2019-05-14T08:53:45.317Z,13.93
2019-05-14T08:54:45.308Z,13.73
2019-05-14T08:55:45.300Z,13.62
2019-05-14T08:56:45.290Z,13.62
2019-05-14T08:57:45.397Z,13.68
2019-05-14T08:58:45.268Z,13.68
2019-05-14T08:59:45.259Z,13.83
2019-05-14T09:00:45.251Z,13.75
2019-05-14T09:02:00.783Z,13.76
2019-05-14T09:02:45.233Z,13.88
2019-05-14T09:03:45.225Z,14.08
2019-05-14T09:04:45.218Z,14.12
2019-05-14T09:05:45.202Z,14.39
2019-05-14T09:06:45.196Z,14.44
2019-05-14T09:07:45.186Z,14.16
2019-05-14T09:08:45.177Z,14.30
2019-05-14T09:09:45.167Z,14.44
2019-05-14T09:10:45.156Z,14.46
2019-05-14T09:11:46.867Z,14.42
2019-05-14T09:12:45.138Z,14.41
2019-05-14T09:13:45.131Z,14.38
2019-05-14T09:14:45.119Z,14.53
2019-05-14T09:15:45.110Z,14.49
2019-05-14T09:16:47.672Z,14.49
2019-05-14T09:17:45.092Z,14.45
2019-05-14T09:18:45.084Z,14.44
2019-05-14T09:20:00.933Z,14.53
2019-05-14T09:20:45.065Z,14.46
2019-05-14T09:21:45.060Z,14.57
2019-05-14T09:22:45.046Z,14.56
2019-05-14T09:23:45.040Z,14.67
2019-05-14T09:24:45.041Z,14.64
2019-05-14T09:25:48.782Z,14.79
2019-05-14T09:26:45.016Z,14.94
2019-05-14T09:27:45.003Z,14.94
2019-05-14T09:28:44.998Z,14.83
2019-05-14T09:29:44.987Z,14.75
2019-05-14T09:30:44.979Z,14.71
2019-05-14T09:31:44.973Z,14.59
2019-05-14T09:32:44.961Z,14.64
2019-05-14T09:33:44.949Z,14.59
2019-05-14T09:34:44.942Z,14.63
2019-05-14T09:35:44.933Z,14.56
2019-05-14T09:36:44.925Z,14.59
2019-05-14T09:37:44.916Z,14.56
2019-05-14T09:38:44.909Z,14.41
2019-05-14T09:39:44.900Z,14.34
2019-05-14T09:40:44.892Z,14.41
2019-05-14T09:41:44.883Z,14.30
2019-05-14T09:42:44.872Z,14.23
2019-05-14T09:43:44.865Z,14.05
2019-05-14T09:44:44.854Z,13.94
2019-05-14T09:45:44.845Z,13.96
2019-05-14T09:46:44.840Z,13.98
2019-05-14T09:47:48.187Z,14.05
2019-05-14T09:48:44.820Z,14.06
2019-05-14T09:49:44.811Z,14.08
2019-05-14T09:50:44.804Z,13.83
2019-05-14T09:51:44.793Z,13.96
2019-05-14T09:52:44.783Z,13.96
2019-05-14T09:53:44.777Z,14.05
2019-05-14T09:54:44.770Z,14.11
2019-05-14T09:55:44.758Z,13.96
2019-05-14T09:56:44.751Z,14.06
2019-05-14T09:57:44.741Z,14.01
2019-05-14T09:58:44.730Z,13.96
2019-05-14T09:59:44.720Z,14.02
2019-05-14T10:00:44.714Z,13.86
2019-05-14T10:01:44.704Z,13.81
2019-05-14T10:02:44.694Z,13.81
2019-05-14T10:03:44.685Z,13.96
2019-05-14T10:04:44.693Z,14.04
2019-05-14T10:05:44.667Z,14.06
2019-05-14T10:06:44.662Z,14.26
2019-05-14T10:07:44.653Z,14.21
2019-05-14T10:08:44.639Z,14.05
2019-05-14T10:09:44.632Z,14.01
2019-05-14T10:10:44.622Z,14.17
2019-05-14T10:11:44.612Z,14.20
2019-05-14T10:12:52.686Z,14.46
2019-05-14T10:13:44.593Z,14.54
2019-05-14T10:14:44.584Z,14.59
2019-05-14T10:15:44.576Z,14.75
2019-05-14T10:16:44.565Z,14.82
2019-05-14T10:17:44.560Z,14.80
2019-05-14T10:18:44.549Z,14.83
2019-05-14T10:19:44.549Z,14.80
2019-05-14T10:20:45.903Z,14.94
2019-05-14T10:21:44.523Z,14.91
2019-05-14T10:22:44.514Z,15.01
2019-05-14T10:23:44.507Z,15.07
2019-05-14T10:24:44.493Z,15.07
2019-05-14T10:25:44.487Z,14.95
2019-05-14T10:26:44.477Z,14.93
2019-05-14T10:27:44.469Z,14.80
2019-05-14T10:28:44.465Z,14.86
2019-05-14T10:29:44.452Z,14.95
2019-05-14T10:30:44.444Z,14.83
2019-05-14T10:31:44.436Z,14.78
2019-05-14T10:32:44.446Z,14.71
2019-05-14T10:33:44.418Z,14.64
2019-05-14T10:34:44.405Z,14.71
2019-05-14T10:35:44.403Z,14.79
2019-05-14T10:36:44.393Z,14.71
2019-05-14T10:37:44.380Z,14.67
2019-05-14T10:38:44.375Z,14.82
2019-05-14T10:39:44.368Z,14.91
2019-05-14T10:40:44.359Z,14.80
2019-05-14T10:41:44.351Z,15.03
2019-05-14T10:42:44.336Z,15.16
2019-05-14T10:43:44.330Z,15.23
2019-05-14T10:44:44.323Z,15.30
2019-05-14T10:45:44.310Z,15.12
2019-05-14T10:46:44.304Z,15.15
2019-05-14T10:47:44.298Z,15.05
2019-05-14T10:48:44.286Z,14.94
2019-05-14T10:49:44.283Z,15.03
2019-05-14T10:50:56.251Z,15.09
2019-05-14T10:51:44.269Z,15.15
2019-05-14T10:52:44.256Z,15.05
2019-05-14T10:53:44.247Z,15.19
2019-05-14T10:54:55.326Z,15.20
2019-05-14T10:55:44.232Z,15.01
2019-05-14T10:56:44.222Z,14.78
2019-05-14T10:57:44.214Z,14.75
2019-05-14T10:58:44.205Z,14.75
2019-05-14T10:59:44.194Z,14.78
2019-05-14T11:00:44.211Z,14.78
2019-05-14T11:01:44.180Z,14.93
2019-05-14T11:02:44.169Z,14.78
2019-05-14T11:03:44.166Z,14.82
2019-05-14T11:04:44.159Z,14.80
2019-05-14T11:05:44.149Z,14.87
2019-05-14T11:06:44.138Z,15.01
2019-05-14T11:07:44.133Z,14.98
2019-05-14T11:08:44.124Z,15.00
2019-05-14T11:09:44.113Z,15.11
2019-05-14T11:10:44.105Z,15.18
2019-05-14T11:11:44.096Z,15.30
2019-05-14T11:12:44.093Z,15.22
2019-05-14T11:13:44.080Z,15.20
2019-05-14T11:14:44.080Z,15.12
2019-05-14T11:15:44.062Z,15.03
2019-05-14T11:16:44.058Z,15.09
2019-05-14T11:17:44.045Z,15.15
2019-05-14T11:18:44.037Z,15.25
2019-05-14T11:19:44.032Z,15.34
2019-05-14T11:20:44.021Z,15.40
2019-05-14T11:21:44.011Z,15.46
2019-05-14T11:22:44.010Z,15.33
2019-05-14T11:23:44.001Z,15.38
2019-05-14T11:24:43.997Z,15.37
2019-05-14T11:25:43.986Z,15.37
2019-05-14T11:26:43.974Z,15.38
2019-05-14T11:27:43.963Z,15.40
2019-05-14T11:28:43.961Z,15.38
2019-05-14T11:29:43.949Z,15.48
2019-05-14T11:30:43.940Z,15.15
2019-05-14T11:31:43.933Z,15.01
2019-05-14T11:32:43.927Z,15.12
2019-05-14T11:33:43.915Z,15.23
2019-05-14T11:34:43.905Z,15.38
2019-05-14T11:35:43.899Z,15.37
2019-05-14T11:36:43.892Z,15.38
2019-05-14T11:37:43.880Z,15.37
2019-05-14T11:38:43.877Z,15.52
2019-05-14T11:39:43.867Z,15.52
2019-05-14T11:40:43.864Z,15.46
2019-05-14T11:41:43.857Z,15.20
2019-05-14T11:42:43.843Z,15.15
2019-05-14T11:43:43.850Z,15.11
2019-05-14T11:44:43.834Z,15.20
2019-05-14T11:45:43.829Z,15.41
2019-05-14T11:46:52.567Z,15.59
2019-05-14T11:47:43.804Z,15.59
2019-05-14T11:48:43.794Z,15.55
2019-05-14T11:49:43.785Z,15.56
2019-05-14T11:50:43.777Z,15.56
2019-05-14T11:52:00.988Z,15.37
2019-05-14T11:52:43.765Z,15.31
2019-05-14T11:53:43.755Z,15.23
2019-05-14T11:54:43.749Z,15.43
2019-05-14T11:55:43.764Z,15.60
2019-05-14T11:56:43.731Z,15.66
2019-05-14T11:57:43.733Z,15.74
2019-05-14T11:58:43.713Z,15.66
2019-05-14T11:59:43.705Z,15.71
2019-05-14T12:00:43.700Z,15.68
2019-05-14T12:01:43.689Z,15.70
2019-05-14T12:02:43.683Z,15.98
2019-05-14T12:03:43.674Z,16.06
2019-05-14T12:04:43.667Z,15.91
2019-05-14T12:05:43.660Z,15.88
2019-05-14T12:06:43.651Z,15.85
2019-05-14T12:07:43.652Z,15.85
2019-05-14T12:08:43.635Z,15.70
2019-05-14T12:09:43.630Z,15.76
2019-05-14T12:10:43.623Z,15.81
2019-05-14T12:11:43.612Z,15.89
2019-05-14T12:12:43.604Z,15.73
2019-05-14T12:13:43.596Z,15.74
2019-05-14T12:14:43.589Z,15.85
2019-05-14T12:15:43.586Z,15.95
2019-05-14T12:16:43.582Z,15.86
2019-05-14T12:17:43.566Z,15.71
2019-05-14T12:18:43.555Z,15.74
2019-05-14T12:19:44.176Z,15.88
2019-05-14T12:20:43.547Z,15.88
2019-05-14T12:21:58.958Z,15.91
2019-05-14T12:22:43.533Z,15.85
2019-05-14T12:23:43.525Z,15.55
2019-05-14T12:24:43.512Z,15.51
2019-05-14T12:25:43.506Z,15.60
2019-05-14T12:26:43.499Z,15.68
2019-05-14T12:27:43.491Z,15.60
2019-05-14T12:28:43.481Z,15.59
2019-05-14T12:29:43.472Z,15.60
2019-05-14T12:30:43.466Z,15.68
2019-05-14T12:31:43.461Z,15.64
2019-05-14T12:32:43.457Z,15.78
2019-05-14T12:33:43.445Z,15.81
2019-05-14T12:34:43.435Z,15.66
2019-05-14T12:35:43.427Z,15.70
2019-05-14T12:36:43.435Z,15.71
2019-05-14T12:37:43.414Z,15.85
2019-05-14T12:38:43.408Z,15.86
2019-05-14T12:39:43.400Z,15.78
2019-05-14T12:40:43.392Z,15.66
2019-05-14T12:41:43.383Z,15.59
2019-05-14T12:42:43.374Z,15.55
2019-05-14T12:43:43.934Z,15.67
2019-05-14T12:44:43.381Z,15.64
2019-05-14T12:45:43.351Z,15.64
2019-05-14T12:46:43.351Z,15.67
2019-05-14T12:47:43.346Z,15.67
2019-05-14T12:48:43.334Z,15.86
2019-05-14T12:49:43.335Z,15.88
2019-05-14T12:50:43.317Z,15.77
2019-05-14T12:51:43.318Z,15.91
2019-05-14T12:52:43.298Z,15.99
2019-05-14T12:53:43.289Z,15.88
2019-05-14T12:54:43.285Z,15.81
2019-05-14T12:55:43.274Z,15.89
2019-05-14T12:56:43.267Z,15.86
2019-05-14T12:57:43.264Z,15.91
2019-05-14T12:58:45.871Z,15.95
2019-05-14T12:59:43.243Z,16.14
2019-05-14T13:00:43.237Z,16.07
2019-05-14T13:01:43.229Z,15.96
2019-05-14T13:02:43.222Z,15.98